Skip Navigation Links Skip Navigation Links

Current Weather

Barra Do Garcas, Brazil

For information only: do not use for flight planning or navigation.
Latest weather
Observation time Thursday, February 22, 2018 6:00 PM BRT
Local time Thursday, February 22, 2018 11:40 PM BRT
Flight conditions Visual Meteorological Conditions
Winds
Wind direction East-Southeast (110°)
Wind speed 2 mph
Visibility 6.2 mi.
Sky condition
Ceiling 8,000 ft. broken clouds
Cloud layer few clouds 2,000 ft.
Cloud layer scattered clouds 7,000 ft.
Cloud layer broken clouds 8,000 ft.
Temperature 82°F
Dewpoint 73°F
Altimeter 29.80 in.Hg
Derived measurements
Relative humidity 74%
Heat index 88°F
Density altitude 2367 ft.
METAR SBBW 222100Z 11002KT 9999 FEW020 SCT070 BKN080 28/23 Q1009

Settings

Location code

InnerDrive.Weather 4.0.6615.0 Release CLR 4.0.30319.42000
Copyright ©2018 Inner Drive Technology. All rights reserved. Portions Copyright ©1986-2018 David Braverman.

Find weather

Site navigation


Skip Navigation Links

Place info

Page info

PayPal - The safer, easier way to pay online!

Return home.

Copyright ©2018 Inner Drive Technology. Purveyors of fine, hand-crafted computer software. Page printed 2018-02-23T02:40:35 UTC.